Terminal Aerodrome Forecast
Issued by NWS

Home | Current Version | Previous Version | Text Only | Print | Product List | Glossary On
Versions: 1 2 3 4 5 6 7 8 9 10 11 12 13 14 15 16 17 18
000
FTUS45 KVEF 041123 CCA
TAFVGT
TAF COR
KVGT 041123Z 0412/0512 VRB06KT P6SM VCSH BKN150 BKN250
     FM041800 07007KT P6SM SCT150 BKN250
     FM050200 16007KT P6SM FEW150 BKN250
     FM050600 30007KT P6SM BKN250=

USA.gov is the U.S. government's official web portal to all federal, state and local government web resources and services.